createdAt,value
2019-04-07T00:01:57.302Z,96715.50
2019-04-07T00:04:28.297Z,96712.91
2019-04-07T00:06:59.249Z,96714.84
2019-04-07T00:09:30.366Z,96709.27
2019-04-07T00:12:01.281Z,96710.48
2019-04-07T00:14:32.908Z,96709.73
2019-04-07T00:17:03.906Z,96715.27
2019-04-07T00:19:35.053Z,96713.57
2019-04-07T00:22:06.097Z,96717.36
2019-04-07T00:24:37.134Z,96720.75
2019-04-07T00:27:08.003Z,96726.20
2019-04-07T00:29:39.515Z,96728.69
2019-04-07T00:32:11.105Z,96729.20
2019-04-07T00:34:42.374Z,96735.67
2019-04-07T00:37:13.929Z,96730.64
2019-04-07T00:39:45.089Z,96734.58
2019-04-07T00:42:16.013Z,96732.92
2019-04-07T00:44:47.471Z,96733.84
2019-04-07T00:47:19.471Z,96728.34
2019-04-07T00:49:51.195Z,96735.78
2019-04-07T00:52:23.936Z,96733.98
2019-04-07T00:54:54.848Z,96739.10
2019-04-07T00:57:26.401Z,96729.59
2019-04-07T00:59:57.308Z,96732.98
2019-04-07T01:02:28.570Z,96735.33
2019-04-07T01:04:59.924Z,96728.48
2019-04-07T01:07:30.944Z,96737.66
2019-04-07T01:10:02.171Z,96737.36
2019-04-07T01:12:33.628Z,96740.52
2019-04-07T01:15:07.721Z,96742.10
2019-04-07T01:17:39.208Z,96742.42
2019-04-07T01:20:11.824Z,96740.22
2019-04-07T01:22:42.784Z,96743.95
2019-04-07T01:25:13.907Z,96740.07
2019-04-07T01:27:45.476Z,96748.23
2019-04-07T01:30:17.189Z,96747.16
2019-04-07T01:32:48.349Z,96739.70
2019-04-07T01:35:19.258Z,96744.11
2019-04-07T01:37:50.679Z,96741.90
2019-04-07T01:40:21.588Z,96746.62
2019-04-07T01:42:56.710Z,96744.02
2019-04-07T01:45:41.282Z,96743.11
2019-04-07T01:48:20.367Z,96739.77
2019-04-07T01:51:09.494Z,96740.01
2019-04-07T01:53:51.007Z,96736.13
2019-04-07T01:56:38.474Z,96739.37
2019-04-07T01:59:27.359Z,96743.12
2019-04-07T02:02:02.756Z,96735.28
2019-04-07T02:04:35.845Z,96735.27
2019-04-07T02:07:11.703Z,96737.91
2019-04-07T02:09:53.374Z,96740.03
2019-04-07T02:12:32.278Z,96741.58
2019-04-07T02:15:08.557Z,96733.56
2019-04-07T02:17:50.598Z,96732.58
2019-04-07T02:20:58.947Z,96736.59
2019-04-07T02:23:47.177Z,96741.20
2019-04-07T02:26:35.020Z,96738.95
2019-04-07T02:29:19.504Z,96743.34
2019-04-07T02:31:55.202Z,96736.68
2019-04-07T02:34:30.548Z,96734.23
2019-04-07T02:37:19.297Z,96736.39
2019-04-07T02:39:52.675Z,96739.66
2019-04-07T02:42:34.395Z,96740.49
2019-04-07T02:45:09.090Z,96739.55
2019-04-07T02:47:44.831Z,96742.30
2019-04-07T02:50:24.108Z,96742.36
2019-04-07T02:53:13.575Z,96742.09
2019-04-07T02:55:58.317Z,96749.22
2019-04-07T02:58:33.299Z,96741.59
2019-04-07T03:01:09.656Z,96742.38
2019-04-07T03:03:48.461Z,96739.83
2019-04-07T03:06:37.626Z,96744.44
2019-04-07T03:09:11.585Z,96738.97
2019-04-07T03:11:56.809Z,96739.55
2019-04-07T03:14:47.647Z,96738.61
2019-04-07T03:17:29.764Z,96743.99
2019-04-07T03:20:07.076Z,96737.59
2019-04-07T03:22:48.400Z,96741.86
2019-04-07T03:25:23.995Z,96743.00
2019-04-07T03:28:00.506Z,96742.20
2019-04-07T03:30:51.526Z,96742.14
2019-04-07T03:33:28.386Z,96743.59
2019-04-07T03:36:03.014Z,96736.94
2019-04-07T03:38:38.461Z,96747.48
2019-04-07T03:41:24.056Z,96740.42
2019-04-07T03:43:59.572Z,96737.95
2019-04-07T03:46:32.616Z,96738.41
2019-04-07T03:49:06.027Z,96742.45
2019-04-07T03:51:41.693Z,96738.72
2019-04-07T03:54:30.292Z,96738.56
2019-04-07T03:57:03.067Z,96740.45
2019-04-07T03:59:44.641Z,96744.95
2019-04-07T04:02:34.412Z,96743.20
2019-04-07T04:05:22.790Z,96742.20
2019-04-07T04:07:55.387Z,96740.59
2019-04-07T04:10:30.875Z,96745.95
2019-04-07T04:13:03.404Z,96751.97
2019-04-07T04:15:48.327Z,96757.70
2019-04-07T04:18:20.394Z,96753.17
2019-04-07T04:20:51.551Z,96755.47
2019-04-07T04:23:22.427Z,96763.52
2019-04-07T04:25:53.772Z,96765.91
2019-04-07T04:28:24.756Z,96762.23
2019-04-07T04:30:56.477Z,96768.16
2019-04-07T04:33:27.681Z,96772.48
2019-04-07T04:35:59.097Z,96773.28
2019-04-07T04:38:30.160Z,96777.16
2019-04-07T04:41:01.374Z,96781.12
2019-04-07T04:43:33.841Z,96781.90
2019-04-07T04:46:08.308Z,96782.46
2019-04-07T04:48:37.487Z,96788.66
2019-04-07T04:51:08.666Z,96790.77
2019-04-07T04:53:39.974Z,96793.22
2019-04-07T04:56:11.109Z,96790.70
2019-04-07T04:58:42.428Z,96790.47
2019-04-07T05:01:13.502Z,96795.69
2019-04-07T05:03:44.749Z,96796.62
2019-04-07T05:06:18.627Z,96799.25
2019-04-07T05:08:49.981Z,96796.81
2019-04-07T05:11:21.225Z,96797.38
2019-04-07T05:13:52.873Z,96806.30
2019-04-07T05:16:24.084Z,96803.59
2019-04-07T05:18:54.986Z,96808.67
2019-04-07T05:21:26.194Z,96806.18
2019-04-07T05:23:57.290Z,96801.97
2019-04-07T05:26:29.073Z,96805.84
2019-04-07T05:29:00.455Z,96804.41
2019-04-07T05:31:33.747Z,96803.80
2019-04-07T05:34:05.391Z,96806.52
2019-04-07T05:36:36.956Z,96810.99
2019-04-07T05:39:08.665Z,96812.92
2019-04-07T05:41:40.007Z,96811.77
2019-04-07T05:44:11.586Z,96817.39
2019-04-07T05:46:43.419Z,96818.30
2019-04-07T05:49:16.243Z,96817.47
2019-04-07T05:51:47.152Z,96827.20
2019-04-07T05:54:19.772Z,96826.34
2019-04-07T05:56:51.471Z,96829.58
2019-04-07T05:59:22.298Z,96826.53
2019-04-07T06:01:58.454Z,96828.22
2019-04-07T14:20:15.029Z,96780.83
2019-04-07T14:23:02.134Z,96778.23
2019-04-07T14:25:47.052Z,96778.84
2019-04-07T14:28:19.000Z,96780.98
2019-04-07T14:31:07.593Z,96783.42
2019-04-07T14:33:57.363Z,96772.06
2019-04-07T14:36:42.691Z,96782.63
2019-04-07T14:39:17.604Z,96784.48
2019-04-07T14:42:08.535Z,96787.32
2019-04-07T14:44:41.219Z,96788.81
2019-04-07T14:47:18.590Z,96791.97
2019-04-07T14:50:04.904Z,96791.80
2019-04-07T14:52:38.318Z,96786.78
2019-04-07T14:55:10.999Z,96784.58
2019-04-07T14:57:50.260Z,96800.27
2019-04-07T15:00:27.270Z,96791.19
2019-04-07T15:02:58.572Z,96785.78
2019-04-07T15:05:32.664Z,96785.83
2019-04-07T15:08:11.670Z,96794.75
2019-04-07T15:10:50.338Z,96807.37
2019-04-07T15:13:25.784Z,96801.44
2019-04-07T15:15:56.102Z,96805.05
2019-04-07T15:18:27.605Z,96802.73
2019-04-07T15:21:00.121Z,96809.88
2019-04-07T15:23:32.870Z,96811.55
2019-04-07T15:26:03.872Z,96811.48
2019-04-07T15:28:34.961Z,96810.57
2019-04-07T15:31:06.417Z,96812.06
2019-04-07T15:33:38.132Z,96813.59
2019-04-07T15:36:09.673Z,96816.80
2019-04-07T15:38:41.822Z,96818.55
2019-04-07T15:41:16.441Z,96814.98
2019-04-07T15:43:46.408Z,96820.48
2019-04-07T15:46:19.170Z,96822.11
2019-04-07T15:48:54.289Z,96817.84
2019-04-07T15:51:23.812Z,96822.30
2019-04-07T15:53:55.373Z,96824.70
2019-04-07T15:56:27.139Z,96825.22
2019-04-07T15:59:00.951Z,96830.48
2019-04-07T16:01:31.539Z,96837.55
2019-04-07T16:04:02.565Z,96837.47
2019-04-07T16:06:36.085Z,96841.96
2019-04-07T16:09:16.744Z,96841.96
2019-04-07T16:11:41.347Z,96839.19
2019-04-07T16:14:13.617Z,96838.20
2019-04-07T16:16:45.173Z,96847.80
2019-04-07T16:19:21.959Z,96848.62
2019-04-07T16:21:49.438Z,96853.66
2019-04-07T16:24:21.966Z,96861.30
2019-04-07T16:26:53.313Z,96863.36
2019-04-07T16:29:24.378Z,96861.59
2019-04-07T16:31:56.990Z,96860.89
2019-04-07T16:34:28.382Z,96856.43
2019-04-07T16:37:00.421Z,96871.88
2019-04-07T16:39:34.495Z,96873.67
2019-04-07T16:42:04.626Z,96875.14
2019-04-07T16:44:37.668Z,96878.20
2019-04-07T16:47:17.842Z,96878.90
2019-04-07T16:49:44.625Z,96883.27
2019-04-07T16:52:14.034Z,96887.31
2019-04-07T16:54:47.957Z,96893.70
2019-04-07T16:57:41.517Z,96889.28
2019-04-07T17:00:16.389Z,96888.48
2019-04-07T17:02:48.077Z,96891.19
2019-04-07T17:05:21.892Z,96893.52
2019-04-07T17:07:55.705Z,96889.14
2019-04-07T17:10:28.732Z,96896.34
2019-04-07T17:13:00.814Z,96894.37
2019-04-07T17:15:34.777Z,96904.38
2019-04-07T17:18:09.797Z,96901.11
2019-04-07T17:20:44.710Z,96899.12
2019-04-07T17:23:16.690Z,96896.29
2019-04-07T17:25:56.238Z,96899.66
2019-04-07T17:28:31.276Z,96903.75
2019-04-07T17:31:03.196Z,96903.96
2019-04-07T17:33:36.786Z,96905.78
2019-04-07T17:36:07.912Z,96907.83
2019-04-07T17:38:53.061Z,96916.44
2019-04-07T17:41:24.204Z,96913.71
2019-04-07T17:44:00.955Z,96919.69
2019-04-07T17:46:43.493Z,96918.27
2019-04-07T17:49:30.946Z,96922.80
2019-04-07T17:52:11.079Z,96920.09
2019-04-07T17:54:48.889Z,96931.04
2019-04-07T17:57:22.566Z,96934.63
2019-04-07T18:00:04.669Z,96936.28
2019-04-07T18:03:07.491Z,96937.59
2019-04-07T18:05:59.283Z,96941.03
2019-04-07T18:08:43.351Z,96945.15
2019-04-07T18:11:17.764Z,96952.76
2019-04-07T18:13:51.534Z,96955.73
2019-04-07T18:16:40.711Z,96966.22
2019-04-07T18:19:22.161Z,96957.78
2019-04-07T18:22:04.059Z,96967.64
2019-04-07T18:24:53.120Z,96969.31
2019-04-07T18:27:31.874Z,96975.13
2019-04-07T18:30:18.640Z,96976.39
2019-04-07T18:32:57.621Z,96981.50
2019-04-07T18:35:40.920Z,96977.05
2019-04-07T18:38:17.154Z,96982.75
2019-04-07T18:41:09.391Z,96984.52
2019-04-07T18:43:50.664Z,96987.55
2019-04-07T18:46:22.608Z,97003.61
2019-04-07T18:49:11.689Z,97000.45
2019-04-07T18:51:56.899Z,97002.30
2019-04-07T18:54:31.089Z,97005.53
2019-04-07T18:57:10.581Z,97007.36
2019-04-07T19:00:01.125Z,97009.20
2019-04-07T19:02:31.931Z,97013.07
2019-04-07T19:05:08.247Z,97015.92
2019-04-07T19:07:45.876Z,97016.46
2019-04-07T19:10:24.207Z,97020.17
2019-04-07T19:13:11.011Z,97020.98
2019-04-07T19:15:40.062Z,97018.66
2019-04-07T19:18:14.872Z,97030.02
2019-04-07T19:20:50.379Z,97023.80
2019-04-07T19:23:26.230Z,97026.10
2019-04-07T19:26:03.157Z,97028.13
2019-04-07T19:28:54.149Z,97025.19
2019-04-07T19:31:48.089Z,97021.13
2019-04-07T19:34:28.497Z,97022.81
2019-04-07T19:37:15.324Z,97021.78
2019-04-07T19:39:49.087Z,97019.91
2019-04-07T19:42:21.955Z,97022.63
2019-04-07T19:45:04.270Z,97029.48
2019-04-07T19:47:46.500Z,97020.63
2019-04-07T19:50:36.987Z,97021.51
2019-04-07T19:53:12.919Z,97021.41
2019-04-07T19:55:46.529Z,97019.25
2019-04-07T19:58:19.752Z,97014.94
2019-04-07T20:01:03.387Z,97015.06
2019-04-07T20:03:47.316Z,97017.58
2019-04-07T20:06:23.132Z,97013.25
2019-04-07T20:08:58.255Z,97014.48
2019-04-07T20:11:45.936Z,97017.20
2019-04-07T20:14:30.696Z,97019.45
2019-04-07T20:17:06.569Z,97024.12
2019-04-07T20:19:45.017Z,97024.95
2019-04-07T20:22:17.612Z,97021.98
2019-04-07T20:24:53.073Z,97027.87
2019-04-07T20:27:28.496Z,97029.73
2019-04-07T20:30:03.144Z,97026.21
2019-04-07T20:32:36.165Z,97028.23
2019-04-07T20:35:14.556Z,97019.66
2019-04-07T20:37:50.917Z,97022.19
2019-04-07T20:40:23.675Z,97020.59
2019-04-07T20:43:12.914Z,97023.65
2019-04-07T20:46:04.588Z,97024.78
2019-04-07T20:48:46.328Z,97023.19
2019-04-07T20:51:19.257Z,97026.17
2019-04-07T20:53:51.807Z,97026.17
2019-04-07T20:56:27.334Z,97028.23
2019-04-07T20:59:09.867Z,97028.98
2019-04-07T21:01:58.767Z,97033.36
2019-04-07T21:04:28.648Z,97030.20
2019-04-07T21:07:11.075Z,97036.17
2019-04-07T21:09:44.033Z,97034.56
2019-04-07T21:12:23.173Z,97044.14
2019-04-07T21:15:17.422Z,97043.33
2019-04-07T21:17:41.385Z,97047.48
2019-04-07T21:20:30.379Z,97044.98
2019-04-07T21:23:19.942Z,97052.04
2019-04-07T21:26:02.073Z,97046.06
2019-04-07T21:28:37.457Z,97044.27
2019-04-07T21:31:26.137Z,97047.54
2019-04-07T21:34:10.459Z,97043.23
2019-04-07T21:36:58.130Z,97041.25
2019-04-07T21:39:48.927Z,97035.20
2019-04-07T21:42:33.984Z,97035.08
2019-04-07T21:45:35.392Z,97024.08
2019-04-07T21:48:00.193Z,97016.98
2019-04-07T21:50:32.602Z,97021.74
2019-04-07T21:53:05.251Z,97019.04
2019-04-07T21:55:41.801Z,97016.34
2019-04-07T21:58:14.344Z,97018.30
2019-04-07T22:00:48.449Z,97020.78
2019-04-07T22:03:23.304Z,97024.13
2019-04-07T22:06:11.830Z,97026.52
2019-04-07T22:09:00.299Z,97030.59
2019-04-07T22:11:31.313Z,97033.11
2019-04-07T22:14:04.087Z,97031.34
2019-04-07T22:16:35.413Z,97035.81
2019-04-07T22:19:10.563Z,97028.58
2019-04-07T22:21:40.386Z,97033.42
2019-04-07T22:24:11.429Z,97033.89
2019-04-07T22:26:46.170Z,97036.78
2019-04-07T22:29:16.117Z,97037.44
2019-04-07T22:31:51.548Z,97036.44
2019-04-07T22:34:22.743Z,97038.31
2019-04-07T22:36:53.857Z,97039.24
2019-04-07T22:39:27.486Z,97043.56
2019-04-07T22:41:58.334Z,97054.19
2019-04-07T22:44:29.385Z,97051.77
2019-04-07T22:47:00.297Z,97050.86
2019-04-07T22:49:32.195Z,97049.08
2019-04-07T22:52:03.597Z,97053.92
2019-04-07T22:54:34.871Z,97054.23
2019-04-07T22:57:11.857Z,97062.08
2019-04-07T22:59:38.711Z,97062.27
2019-04-07T23:02:09.833Z,97066.95
2019-04-07T23:04:40.877Z,97067.98
2019-04-07T23:07:11.811Z,97068.63
2019-04-07T23:09:42.914Z,97067.88
2019-04-07T23:12:14.745Z,97068.08
2019-04-07T23:14:45.722Z,97066.78
2019-04-07T23:17:17.545Z,97068.45
2019-04-07T23:19:48.540Z,97068.08
2019-04-07T23:22:20.111Z,97067.16
2019-04-07T23:24:51.235Z,97062.48
2019-04-07T23:27:22.215Z,97063.88
2019-04-07T23:29:53.110Z,97066.31
2019-04-07T23:32:24.139Z,97060.52
2019-04-07T23:34:55.485Z,97063.88
2019-04-07T23:37:26.522Z,97065.92
2019-04-07T23:39:58.085Z,97066.94
2019-04-07T23:42:29.390Z,97061.09
2019-04-07T23:45:00.791Z,97063.50
2019-04-07T23:47:31.821Z,97070.39
2019-04-07T23:50:02.970Z,97068.63
2019-04-07T23:52:33.924Z,97069.92
2019-04-07T23:55:05.044Z,97070.48
2019-04-07T23:57:36.049Z,97072.47
